Terminal Aerodrome Forecast
Issued by NWS

Current Version | Previous Version | Text Only | Print | Product List | Glossary Off
Versions: 1 2 3 4 5 6 7 8 9 10 11 12 13 14 15 16 17 18 19 20 21 22 23 24

000
FTUS41 KRLX 170500
TAFCKB
TAF
KCKB 170532Z 1706/1806 26008KT 6SM -RA OVC014
     FM171100 25008KT 6SM -DZ OVC008
     FM171400 25009G15KT P6SM OVC014=

USA.gov is the U.S. government's official web portal to all federal, state and local government web resources and services.